Ride Results

2008 Far-A-Way EEC Monday (24-03-2008)
Ride distance: 84.0 km

Outcomes - 2008 Far-A-Way EEC Monday (24-03-2008)
Division No. of Entries Retired / DNE Completed Withdrawn Ineligible V/O Percentage Completed
HW 5 - 4 - - 1 80.00%
MW 10 - 6 - - 4 60.00%
LW 9 - 9 - - - 100.00%
Totals 24 - 19 - - 5 79.17%
Results - 2008 Far-A-Way EEC Monday (24-03-2008)
No. Rider Horse Place Time Leg Speeds Total
Km/Hr
H/R bpm
Heavyweight
107 Matthew Sample Brookleigh Ricardo 1 (BC) 4:59:00 17.9, 15.7 16.86 34, 52, 44 (Avg:48)
115 Mark Nimon Abbeywood Solitare 2 5:37:00 16.4, 13.4 14.96 33, 41, 45 (Avg:43)
123 Gerard Bou Kai Hai Sterling Aaramis 3 5:57:00 16.4, 12.0 14.12 31, 42, 48 (Avg:45)
102 Olaf Lochtenberg Matta Mia Ademi 4 6:30:00 13.4, 12.3 12.92 36, 44, 57 (Avg:50)
106 Shimpei Miyamoto Roobuk Tahlara Lame L2 0:00:00 10.5, 11.2 - 32, 52, 49 (Avg:50)
Middleweight
124 Sally Summers Harry Potter 1 (BC) 7:04:00 12.6, 11.0 11.89 37, 45, 46 (Avg:45)
120 Helen Astell Miss Matawhero 2 7:23:00 11.4, 11.2 11.38 34, 38, 48 (Avg:43)
114 Ken Moir Sundust Joker 2 7:23:00 12.8, 9.9 11.38 30, 41, 56 (Avg:48)
116 Bridget Nottle State Secret 2 7:23:00 11.4, 11.2 11.38 40, 43, 47 (Avg:45)
121 Terri Anderson Rowallan Curley Sue 5 7:45:00 10.5, 11.2 10.84 40, 44, 49 (Avg:46)
103 Mark Grogan Woomera Sovereign 6 8:28:00 9.2, 10.9 9.92 47, 48, 49 (Avg:48)
108 Dave Dennis Stussy Heart Rate L2 0:00:00 13.9, 9.2 - 38, 38, 68 (Avg:53)
105 Brook Sample Taljarri Moonlight Pharoah Heart Rate L1 0:00:00 17.5 - 32, 64 (Avg:64)
122 Rosemary Skipper Tierview Feather Danczer Metabolics L1 0:00:00 22.4 - 29, 44 (Avg:44)
112 Karen Weeden Zodesha Zinnia Lame L1 0:00:00 9.5 - 54, 48 (Avg:48)
Lightweight
119 Tylana Woodward Tallow Wood Sa Hassan 1 5:00:00 18.6, 14.9 16.80 33, 49, 59 (Avg:54)
113 Yvonne Knight Alhambra Troubador 2 (BC) 5:37:00 17.1, 12.9 14.96 40, 42, 51 (Avg:46)
125 Della Weier Kahshah 3 7:04:00 12.6, 11.0 11.89 32, 38, 43 (Avg:40)
101 Bridget Campbell Cameo Kinshaza 4 7:20:00 11.8, 10.9 11.45 44, 39, 45 (Avg:42)
117 Shelley-ann Kimber El Quantum 5 7:28:00 10.4, 12.3 11.25 35, 40, 46 (Avg:43)
118 Katherine Ryan Cool Reaction 5 7:28:00 10.4, 12.3 11.25 33, 45, 50 (Avg:47)
110 Bobbi Lochtenberg Matta Mia Safir 7 7:45:00 10.5, 11.2 10.84 36, 39, 46 (Avg:42)
104 Kaylea Maher Bacchante Casablanca 8 8:28:00 9.2, 10.9 9.92 39, 39, 49 (Avg:44)
126 Leigh Ann Sample Brookleigh Farrah 8 8:28:00 9.2, 10.9 9.92 40, 45, 47 (Avg:46)